Time;durP1;ratioP1;P1;durP2;ratioP2;P2;SDS_P1;SDS_P2;PMS_P1;PMS_P2;Temp;Humidity;BMP_temperature;BMP_pressure;BME280_temperature;BME280_humidity;BME280_pressure;Samples;Min_cycle;Max_cycle;Signal;HPM_P1;HPM_P2
2021/04/23 00:01:42;;;;;;;7.68;6.88;;;11.70;99.90;;;;;;5007424;28;20777;-89
2021/04/23 00:04:08;;;;;;;8.55;7.20;;;11.80;99.90;;;;;;5017095;28;20132;-89
2021/04/23 00:06:37;;;;;;;8.23;7.35;;;11.30;99.90;;;;;;5010797;28;20052;-89
2021/04/23 00:09:17;;;;;;;8.20;7.10;;;11.80;99.90;;;;;;4995416;28;20082;-89
2021/04/23 00:11:59;;;;;;;8.20;7.40;;;11.40;99.90;;;;;;5010194;28;20030;-89
2021/04/23 00:14:29;;;;;;;8.90;7.30;;;11.50;99.90;;;;;;5011937;28;20068;-89
2021/04/23 00:16:55;;;;;;;8.18;7.38;;;11.60;99.90;;;;;;5008761;28;20039;-90
2021/04/23 00:19:24;;;;;;;7.85;7.03;;;11.50;99.90;;;;;;5014793;28;20494;-89
2021/04/23 00:21:51;;;;;;;10.02;7.45;;;10.90;99.90;;;;;;5010789;28;20594;-89
2021/04/23 00:24:17;;;;;;;8.82;7.72;;;11.20;99.90;;;;;;5010520;28;20022;-89
2021/04/23 00:26:43;;;;;;;8.55;7.75;;;11.00;99.90;;;;;;5009971;28;20496;-89
2021/04/23 00:29:09;;;;;;;8.90;7.97;;;11.00;99.90;;;;;;5011630;28;20108;-89
2021/04/23 00:31:36;;;;;;;9.55;7.65;;;10.90;99.90;;;;;;5011016;28;20177;-89
2021/04/23 00:34:02;;;;;;;10.68;8.82;;;10.70;99.90;;;;;;5009829;28;20024;-89
2021/04/23 00:36:28;;;;;;;8.65;7.85;;;10.50;99.90;;;;;;5009002;28;20080;-89
2021/04/23 00:38:54;;;;;;;8.48;7.68;;;11.20;99.90;;;;;;5013634;28;20069;-89
2021/04/23 00:41:29;;;;;;;9.65;7.72;;;10.70;99.90;;;;;;5015631;28;20120;-89
2021/04/23 00:43:58;;;;;;;9.07;8.18;;;11.00;99.90;;;;;;5013324;28;20026;-89
2021/04/23 00:46:26;;;;;;;10.32;8.07;;;10.50;99.90;;;;;;5012887;28;20029;-89
2021/04/23 00:48:52;;;;;;;9.68;8.27;;;10.50;99.90;;;;;;5011546;28;20038;-89
2021/04/23 00:51:24;;;;;;;10.35;7.78;;;11.00;99.90;;;;;;5011181;28;20034;-89
2021/04/23 00:53:51;;;;;;;10.85;8.20;;;10.60;99.90;;;;;;5013954;28;20044;-89
2021/04/23 00:56:21;;;;;;;8.20;7.40;;;10.50;99.90;;;;;;5015065;28;20060;-89
2021/04/23 00:58:48;;;;;;;9.00;7.90;;;10.70;99.90;;;;;;5013056;28;20025;-89
2021/04/23 01:01:24;;;;;;;9.18;8.27;;;10.70;99.90;;;;;;5011263;28;20022;-89
2021/04/23 01:03:50;;;;;;;9.02;8.18;;;10.30;99.90;;;;;;5012898;28;20041;-89
2021/04/23 01:06:20;;;;;;;10.00;9.00;;;10.50;99.90;;;;;;5013842;28;20026;-89
2021/04/23 01:08:47;;;;;;;11.10;8.50;;;10.40;99.90;;;;;;5012680;28;20034;-90
2021/04/23 01:11:14;;;;;;;9.50;8.50;;;10.20;99.90;;;;;;5012638;28;20474;-89
2021/04/23 01:13:40;;;;;;;9.70;8.63;;;10.30;99.90;;;;;;5013086;28;20057;-89
2021/04/23 01:16:09;;;;;;;10.43;8.75;;;10.30;99.90;;;;;;5013931;28;20517;-89
2021/04/23 01:18:36;;;;;;;9.95;8.88;;;10.30;99.90;;;;;;5023481;28;20122;-89
2021/04/23 01:21:06;;;;;;;9.32;8.32;;;10.30;99.90;;;;;;5013842;28;20026;-89
2021/04/23 01:23:33;;;;;;;10.20;9.20;;;10.30;99.90;;;;;;5010368;28;20104;-89
2021/04/23 01:26:00;;;;;;;9.63;8.73;;;10.30;99.90;;;;;;5013057;28;20017;-89
2021/04/23 01:28:27;;;;;;;11.18;9.20;;;10.30;99.90;;;;;;5011453;28;20096;-89
2021/04/23 01:30:53;;;;;;;10.93;8.90;;;10.80;99.90;;;;;;5011540;28;20045;-89
2021/04/23 01:33:19;;;;;;;9.73;8.73;;;10.40;99.90;;;;;;5013666;28;20030;-90
2021/04/23 01:35:45;;;;;;;9.98;8.98;;;10.10;99.90;;;;;;5014015;28;20124;-89
2021/04/23 01:38:11;;;;;;;12.65;9.45;;;10.20;99.90;;;;;;5011908;28;20466;-89
2021/04/23 01:40:37;;;;;;;10.60;9.48;;;10.00;99.90;;;;;;5011150;28;20045;-88
2021/04/23 01:43:03;;;;;;;11.27;8.90;;;9.80;99.90;;;;;;5012135;28;20500;-89
2021/04/23 01:45:29;;;;;;;12.68;9.25;;;9.90;99.90;;;;;;5018800;28;20034;-89
2021/04/23 01:47:55;;;;;;;11.57;9.90;;;9.90;99.90;;;;;;5011968;28;20042;-89
2021/04/23 01:50:22;;;;;;;9.98;9.02;;;9.80;99.90;;;;;;5014371;28;20076;-89
2021/04/23 01:52:49;;;;;;;10.70;9.70;;;9.90;99.90;;;;;;5011845;28;20053;-89
2021/04/23 01:55:18;;;;;;;11.40;9.40;;;9.70;99.90;;;;;;5011905;28;20026;-89
2021/04/23 01:57:45;;;;;;;10.60;9.00;;;9.70;99.90;;;;;;5011034;28;20108;-89
2021/04/23 02:00:20;;;;;;;10.88;9.77;;;9.60;99.90;;;;;;5019887;28;20026;-89
2021/04/23 02:02:47;;;;;;;10.77;9.23;;;9.60;99.90;;;;;;5013385;28;20065;-89
2021/04/23 02:05:13;;;;;;;10.88;9.57;;;10.00;99.90;;;;;;5012022;28;20041;-89
2021/04/23 02:07:40;;;;;;;10.80;9.70;;;9.60;99.90;;;;;;5013228;28;20034;-89
2021/04/23 02:10:17;;;;;;;13.68;9.73;;;9.70;99.90;;;;;;5012067;28;20132;-89
2021/04/23 02:12:43;;;;;;;10.50;9.40;;;9.70;99.90;;;;;;5011768;28;20117;-89
2021/04/23 02:15:11;;;;;;;10.13;8.98;;;9.40;99.90;;;;;;5021734;28;20502;-89
2021/04/23 02:17:37;;;;;;;10.63;9.50;;;9.50;99.90;;;;;;5013166;28;20030;-89
2021/04/23 02:20:09;;;;;;;10.90;9.45;;;9.50;99.90;;;;;;5011205;28;20588;-89
2021/04/23 02:22:35;;;;;;;10.75;9.60;;;9.60;99.90;;;;;;5010723;28;20489;-89
2021/04/23 02:25:01;;;;;;;13.60;10.07;;;9.70;99.90;;;;;;5011359;28;20018;-89
2021/04/23 02:27:27;;;;;;;10.80;9.70;;;9.70;99.90;;;;;;5007770;28;20046;-89
2021/04/23 02:29:52;;;;;;;10.95;9.82;;;10.00;99.90;;;;;;5012504;28;20113;-89
2021/04/23 02:32:18;;;;;;;12.05;10.10;;;9.60;99.90;;;;;;5013374;28;20060;-89
2021/04/23 02:34:44;;;;;;;10.73;9.63;;;9.70;99.90;;;;;;5011249;28;20026;-89
2021/04/23 02:37:10;;;;;;;12.63;10.25;;;9.70;99.90;;;;;;5009506;28;20117;-89
2021/04/23 02:39:35;;;;;;;10.77;9.68;;;9.80;99.90;;;;;;5011330;28;20402;-89
2021/04/23 02:42:01;;;;;;;11.13;10.02;;;9.60;99.90;;;;;;5010401;28;20029;-90
2021/04/23 02:44:27;;;;;;;11.05;9.95;;;9.60;99.90;;;;;;5015152;28;20513;-89
2021/04/23 02:46:54;;;;;;;12.20;10.90;;;10.20;99.90;;;;;;5009137;28;20029;-89
2021/04/23 02:49:19;;;;;;;11.65;10.30;;;9.60;99.90;;;;;;5011394;28;20113;-90
2021/04/23 02:51:48;;;;;;;12.13;9.85;;;9.50;99.90;;;;;;5010921;28;20049;-89
2021/04/23 02:54:16;;;;;;;10.93;9.68;;;9.40;99.90;;;;;;5011066;28;20398;-90
2021/04/23 02:56:43;;;;;;;12.25;10.35;;;9.40;99.90;;;;;;5012019;28;20030;-90
2021/04/23 02:59:09;;;;;;;12.45;10.80;;;9.40;99.90;;;;;;5011744;28;20038;-90
2021/04/23 03:01:40;;;;;;;11.43;10.23;;;9.30;99.90;;;;;;5010004;28;20454;-89
2021/04/23 03:04:06;;;;;;;11.68;10.57;;;9.20;99.90;;;;;;5011125;28;20119;-90
2021/04/23 03:06:33;;;;;;;12.38;10.43;;;9.20;99.90;;;;;;5010338;28;20050;-90
2021/04/23 03:08:59;;;;;;;12.20;10.73;;;8.90;99.90;;;;;;5009714;28;20049;-90
2021/04/23 03:11:25;;;;;;;13.25;11.85;;;8.60;99.90;;;;;;5011482;28;20413;-89
2021/04/23 03:13:56;;;;;;;12.15;10.95;;;9.30;99.90;;;;;;5012019;28;20175;-90
2021/04/23 03:16:24;;;;;;;13.82;11.15;;;8.90;99.90;;;;;;5009374;28;20429;-89
2021/04/23 03:18:50;;;;;;;12.30;11.00;;;9.00;99.90;;;;;;5010264;28;20546;-90
2021/04/23 03:21:18;;;;;;;13.45;12.05;;;9.10;99.90;;;;;;5010628;28;20030;-90
2021/04/23 03:23:44;;;;;;;12.40;11.10;;;9.50;99.90;;;;;;5011016;28;20076;-90
2021/04/23 03:26:11;;;;;;;12.10;10.90;;;9.10;99.90;;;;;;5011884;28;20029;-90
2021/04/23 03:28:39;;;;;;;12.93;10.90;;;9.10;99.90;;;;;;5013221;28;20045;-89
2021/04/23 03:31:05;;;;;;;12.20;10.90;;;9.00;99.90;;;;;;5009276;28;20437;-90
2021/04/23 03:33:31;;;;;;;12.98;11.57;;;8.90;99.90;;;;;;5010797;28;20466;-90
2021/04/23 03:35:59;;;;;;;12.70;11.40;;;8.80;99.90;;;;;;5009881;28;20018;-89
2021/04/23 03:38:29;;;;;;;12.88;11.52;;;8.80;99.90;;;;;;5012150;28;20033;-89
2021/04/23 03:40:55;;;;;;;12.80;11.50;;;8.70;99.90;;;;;;5010645;28;20018;-90
2021/04/23 03:43:21;;;;;;;13.65;11.77;;;8.80;99.90;;;;;;5014111;28;20518;-89
2021/04/23 03:45:48;;;;;;;14.43;11.43;;;8.80;99.90;;;;;;5020034;28;20030;-90
2021/04/23 03:48:14;;;;;;;15.15;12.02;;;8.90;99.90;;;;;;5010179;28;20418;-89
2021/04/23 03:50:41;;;;;;;13.43;11.55;;;8.90;99.90;;;;;;5011649;28;20497;-91
2021/04/23 03:53:11;;;;;;;12.27;11.07;;;8.80;99.90;;;;;;5011954;28;20032;-90
2021/04/23 03:55:40;;;;;;;14.40;11.77;;;8.70;99.90;;;;;;5009453;28;20030;-89
2021/04/23 03:58:07;;;;;;;13.38;11.70;;;8.80;99.90;;;;;;5012996;28;20516;-90
2021/04/23 04:00:41;;;;;;;14.88;12.60;;;8.70;99.90;;;;;;5010775;28;20041;-90
2021/04/23 04:03:08;;;;;;;13.82;12.45;;;9.20;99.90;;;;;;4995063;28;20034;-90
2021/04/23 04:05:35;;;;;;;13.27;11.88;;;8.70;99.90;;;;;;5012212;28;20042;-89
2021/04/23 04:08:02;;;;;;;12.90;11.60;;;8.70;99.90;;;;;;5009301;28;20042;-88
2021/04/23 04:10:28;;;;;;;15.75;13.32;;;8.60;99.90;;;;;;5010560;28;20065;-90
2021/04/23 04:12:54;;;;;;;13.77;11.93;;;8.70;99.90;;;;;;5017541;28;20042;-90
2021/04/23 04:15:20;;;;;;;14.80;12.20;;;8.70;99.90;;;;;;5012642;28;20034;-90
2021/04/23 04:17:46;;;;;;;15.05;12.70;;;8.50;99.90;;;;;;5014119;28;20040;-89
2021/04/23 04:20:14;;;;;;;14.20;12.40;;;8.50;99.90;;;;;;5015665;28;20022;-89
2021/04/23 04:22:41;;;;;;;15.60;12.10;;;8.40;99.90;;;;;;5013614;28;20482;-89
2021/04/23 04:25:09;;;;;;;15.77;12.75;;;8.50;99.90;;;;;;5014308;28;20022;-90
2021/04/23 04:27:35;;;;;;;14.27;12.45;;;8.40;99.90;;;;;;5018486;28;20042;-89
2021/04/23 04:30:01;;;;;;;16.00;13.15;;;8.30;99.90;;;;;;4997134;28;20037;-90
2021/04/23 04:32:26;;;;;;;17.08;13.75;;;8.20;99.90;;;;;;5014784;28;20054;-90
2021/04/23 04:34:52;;;;;;;15.75;13.00;;;8.40;99.90;;;;;;5014137;28;20054;-89
2021/04/23 04:37:18;;;;;;;15.93;12.73;;;8.50;99.90;;;;;;5011776;28;20033;-89
2021/04/23 04:39:43;;;;;;;17.52;14.50;;;8.20;99.90;;;;;;5013967;28;20037;-90
2021/04/23 04:42:09;;;;;;;15.88;13.15;;;8.70;99.90;;;;;;5021172;28;20121;-89
2021/04/23 04:44:35;;;;;;;16.48;13.32;;;8.20;99.90;;;;;;5015453;28;20033;-89
2021/04/23 04:47:02;;;;;;;16.73;13.57;;;8.20;99.90;;;;;;5011863;28;20030;-89
2021/04/23 04:49:27;;;;;;;16.35;13.05;;;8.20;99.90;;;;;;5012920;28;20502;-90
2021/04/23 04:51:53;;;;;;;15.13;13.55;;;8.40;99.90;;;;;;5013444;28;20034;-89
2021/04/23 04:54:19;;;;;;;14.93;13.20;;;8.30;99.90;;;;;;5014385;28;20116;-89
2021/04/23 04:56:45;;;;;;;16.52;13.18;;;8.30;99.90;;;;;;5025088;28;20057;-89
2021/04/23 04:59:10;;;;;;;15.15;13.00;;;8.30;99.90;;;;;;5014902;28;20475;-90
2021/04/23 05:01:36;;;;;;;17.88;13.25;;;8.20;99.90;;;;;;5012859;28;20030;-90
2021/04/23 05:04:02;;;;;;;17.73;13.40;;;8.20;99.90;;;;;;5013011;28;20025;-90
2021/04/23 05:06:27;;;;;;;16.15;14.23;;;8.30;99.90;;;;;;5012966;28;20053;-90
2021/04/23 05:08:53;;;;;;;15.63;13.93;;;8.10;99.90;;;;;;5012800;28;20049;-90
2021/04/23 05:11:19;;;;;;;17.08;13.98;;;8.20;99.90;;;;;;5013332;28;20088;-89
2021/04/23 05:13:44;;;;;;;15.73;13.48;;;8.30;99.90;;;;;;5012210;28;20029;-90
2021/04/23 05:16:10;;;;;;;15.15;13.57;;;8.40;99.90;;;;;;5012449;28;20042;-90
2021/04/23 05:18:36;;;;;;;15.70;13.73;;;8.80;99.90;;;;;;5012430;28;20049;-89
2021/04/23 05:21:02;;;;;;;15.90;14.13;;;8.50;99.90;;;;;;5013121;28;20026;-91
2021/04/23 05:23:28;;;;;;;18.70;13.77;;;8.60;99.90;;;;;;5014585;28;20033;-89
2021/04/23 05:25:54;;;;;;;16.77;14.20;;;8.40;99.90;;;;;;5011041;28;20025;-90
2021/04/23 05:28:19;;;;;;;18.35;14.65;;;8.20;99.90;;;;;;5012551;28;20045;-89
2021/04/23 05:30:45;;;;;;;17.27;13.77;;;8.30;99.90;;;;;;5009770;28;20445;-90
2021/04/23 05:33:11;;;;;;;17.42;14.00;;;8.30;99.90;;;;;;5014875;28;20184;-89
2021/04/23 05:35:39;;;;;;;16.35;13.65;;;8.40;99.90;;;;;;5013971;28;20105;-91
2021/04/23 05:38:06;;;;;;;18.15;14.00;;;8.40;99.90;;;;;;5013583;28;20474;-90
2021/04/23 05:40:42;;;;;;;16.25;13.50;;;8.50;99.90;;;;;;5013606;28;20037;-90
2021/04/23 05:43:09;;;;;;;17.55;13.52;;;8.70;99.90;;;;;;5020424;28;20247;-93
2021/04/23 05:45:36;;;;;;;15.68;13.95;;;8.80;99.90;;;;;;5009876;28;20034;-94
2021/04/23 05:48:03;;;;;;;17.13;13.63;;;8.80;99.90;;;;;;4997522;28;20030;-95
2021/04/23 05:50:29;;;;;;;15.30;13.68;;;8.80;99.90;;;;;;4995252;28;20114;-94
2021/04/23 05:52:55;;;;;;;15.00;13.40;;;8.90;99.90;;;;;;5010679;28;20125;-94
2021/04/23 05:55:25;;;;;;;16.15;13.40;;;9.00;99.90;;;;;;5013701;28;20032;-93
2021/04/23 05:57:53;;;;;;;16.63;14.02;;;8.90;99.90;;;;;;5012333;28;20152;-94
2021/04/23 06:00:20;;;;;;;17.67;13.93;;;9.10;99.90;;;;;;5011923;28;20037;-94
2021/04/23 06:02:47;;;;;;;16.60;13.68;;;9.10;99.90;;;;;;5013429;28;20050;-93
2021/04/23 06:05:14;;;;;;;16.38;13.80;;;9.60;99.90;;;;;;4995816;28;20525;-93
2021/04/23 06:07:40;;;;;;;14.98;13.30;;;9.20;99.90;;;;;;5010176;28;20427;-93
2021/04/23 06:10:09;;;;;;;19.63;13.05;;;9.70;99.90;;;;;;5011480;28;20025;-93
2021/04/23 06:12:36;;;;;;;15.73;13.27;;;9.40;99.90;;;;;;5010775;28;20116;-93
2021/04/23 06:15:04;;;;;;;15.80;13.73;;;9.60;99.90;;;;;;4994775;28;20037;-93
2021/04/23 06:17:29;;;;;;;17.73;13.90;;;9.50;99.90;;;;;;5010000;28;20030;-93
2021/04/23 06:19:55;;;;;;;15.95;13.57;;;9.40;99.90;;;;;;5011980;28;20122;-93
2021/04/23 06:22:20;;;;;;;15.13;13.63;;;9.50;99.90;;;;;;5012153;28;20026;-92
2021/04/23 06:24:46;;;;;;;18.77;13.80;;;9.90;99.90;;;;;;5011835;28;20036;-92
2021/04/23 06:27:12;;;;;;;17.25;13.50;;;9.40;99.90;;;;;;5010746;28;20042;-92
2021/04/23 06:29:38;;;;;;;17.35;13.63;;;9.70;99.90;;;;;;5011834;28;20038;-91
2021/04/23 06:32:19;;;;;;;16.95;13.50;;;9.60;99.90;;;;;;5073721;28;20361;-89
2021/04/23 06:34:45;;;;;;;16.95;13.25;;;9.80;99.90;;;;;;5067918;28;20026;-90
2021/04/23 06:37:11;;;;;;;19.67;13.25;;;10.40;99.90;;;;;;5066719;28;20027;-91
2021/04/23 06:39:36;;;;;;;14.50;11.73;;;10.20;99.90;;;;;;5041845;28;20100;-91
2021/04/23 06:42:02;;;;;;;15.25;11.27;;;10.30;99.90;;;;;;5061634;28;20029;-91
2021/04/23 06:44:27;;;;;;;16.58;10.65;;;10.40;99.90;;;;;;5067031;28;20033;-90
2021/04/23 06:46:53;;;;;;;15.30;10.32;;;10.70;99.90;;;;;;5061354;28;20481;-90
2021/04/23 06:49:19;;;;;;;14.32;10.55;;;10.50;99.90;;;;;;5061363;28;20782;-88
2021/04/23 06:51:45;;;;;;;14.55;10.93;;;10.90;99.90;;;;;;5062195;28;20033;-92
2021/04/23 06:54:11;;;;;;;15.18;10.48;;;10.80;99.90;;;;;;5057851;28;20025;-92
2021/04/23 06:56:36;;;;;;;15.18;10.07;;;10.90;99.90;;;;;;5063967;28;20207;-92
2021/04/23 06:59:02;;;;;;;14.68;9.25;;;10.80;99.90;;;;;;5075694;28;20024;-91
2021/04/23 07:01:28;;;;;;;11.48;9.32;;;10.80;99.90;;;;;;5063044;28;20035;-92
2021/04/23 07:03:54;;;;;;;13.73;8.88;;;10.90;99.90;;;;;;5061846;28;20032;-92
2021/04/23 07:06:20;;;;;;;12.90;9.13;;;11.40;99.90;;;;;;5063591;28;20029;-92
2021/04/23 07:08:46;;;;;;;13.50;8.98;;;11.40;99.90;;;;;;5065322;28;20036;-92
2021/04/23 07:11:11;;;;;;;9.68;8.20;;;11.60;99.90;;;;;;5060617;28;20524;-92
2021/04/23 07:13:37;;;;;;;14.73;9.13;;;11.30;99.90;;;;;;5061290;28;20021;-92
2021/04/23 07:16:03;;;;;;;11.90;8.30;;;11.70;99.90;;;;;;5056738;28;20075;-92
2021/04/23 07:18:28;;;;;;;11.23;8.32;;;11.30;99.90;;;;;;5054862;28;20017;-94
2021/04/23 07:20:54;;;;;;;11.60;7.72;;;11.40;99.90;;;;;;5064406;28;20033;-91
2021/04/23 07:23:20;;;;;;;12.70;8.40;;;12.00;99.90;;;;;;5067777;28;20021;-92
2021/04/23 07:25:46;;;;;;;12.70;7.75;;;11.80;99.90;;;;;;5060599;28;20040;-92
2021/04/23 07:28:12;;;;;;;11.93;7.30;;;11.90;99.90;;;;;;5061006;28;20102;-92
2021/04/23 07:30:39;;;;;;;9.93;7.75;;;12.00;99.90;;;;;;5058771;28;20055;-92
2021/04/23 07:33:08;;;;;;;10.10;7.57;;;11.80;99.90;;;;;;5062637;28;20045;-92
2021/04/23 07:35:34;;;;;;;12.25;7.45;;;12.20;99.90;;;;;;5049801;28;20108;-91
2021/04/23 07:38:00;;;;;;;12.43;7.63;;;12.20;99.90;;;;;;5062821;28;20568;-92
2021/04/23 07:40:26;;;;;;;8.77;7.40;;;11.80;99.90;;;;;;5061936;28;20032;-92
2021/04/23 07:42:52;;;;;;;10.35;7.38;;;12.10;99.90;;;;;;5044670;28;20033;-91
2021/04/23 07:45:18;;;;;;;9.02;7.75;;;12.20;99.90;;;;;;5049256;28;20060;-92
2021/04/23 07:47:44;;;;;;;10.05;7.20;;;12.30;99.90;;;;;;5052718;28;20053;-91
2021/04/23 07:50:12;;;;;;;10.25;7.70;;;12.30;99.90;;;;;;5039064;28;20064;-92
2021/04/23 07:52:38;;;;;;;9.70;7.88;;;12.00;99.90;;;;;;5046270;28;20025;-92
2021/04/23 07:55:06;;;;;;;10.70;7.85;;;12.10;99.90;;;;;;5048666;28;20025;-91
2021/04/23 07:57:34;;;;;;;12.48;7.97;;;12.00;99.90;;;;;;5048783;28;20389;-91
2021/04/23 07:59:59;;;;;;;10.77;7.63;;;12.10;99.90;;;;;;5048463;28;20021;-91
2021/04/23 08:02:25;;;;;;;13.43;8.57;;;12.10;99.90;;;;;;5054799;28;20035;-91
2021/04/23 08:04:51;;;;;;;10.75;7.90;;;12.70;99.90;;;;;;5034475;28;20033;-91
2021/04/23 08:07:16;;;;;;;14.70;7.93;;;12.40;99.90;;;;;;5035259;28;20033;-92
2021/04/23 08:09:42;;;;;;;15.52;8.77;;;12.80;99.90;;;;;;5038008;28;20037;-92
2021/04/23 08:12:08;;;;;;;9.75;7.45;;;12.80;99.90;;;;;;5047915;28;20501;-91
2021/04/23 08:14:34;;;;;;;10.48;7.75;;;12.50;99.90;;;;;;5042957;28;20033;-91
2021/04/23 08:17:00;;;;;;;12.65;7.88;;;12.60;99.90;;;;;;5049513;28;20032;-91
2021/04/23 08:19:26;;;;;;;15.52;8.07;;;12.60;99.90;;;;;;5048291;28;20469;-91
2021/04/23 08:21:52;;;;;;;10.63;7.93;;;12.60;99.90;;;;;;5048136;28;20045;-91
2021/04/23 08:24:18;;;;;;;10.30;7.55;;;12.60;99.90;;;;;;5047415;28;20392;-91
2021/04/23 08:26:43;;;;;;;11.50;7.82;;;12.80;99.90;;;;;;5052128;28;20029;-91
2021/04/23 08:29:12;;;;;;;11.50;8.27;;;13.50;99.90;;;;;;5039848;28;20121;-91
2021/04/23 08:31:40;;;;;;;12.68;7.85;;;13.40;99.90;;;;;;5043961;28;20057;-91
2021/04/23 08:34:06;;;;;;;10.30;8.38;;;13.20;99.90;;;;;;5047219;28;20063;-91
2021/04/23 08:36:32;;;;;;;12.32;8.07;;;13.30;99.90;;;;;;5042133;28;20053;-91
2021/04/23 08:38:58;;;;;;;10.68;8.32;;;13.40;99.90;;;;;;5048056;28;20061;-91
2021/04/23 08:41:23;;;;;;;12.48;8.73;;;13.30;99.90;;;;;;5054448;28;20021;-91
2021/04/23 08:43:49;;;;;;;11.57;8.68;;;13.80;99.90;;;;;;5044304;28;20044;-91
2021/04/23 08:46:15;;;;;;;10.98;8.85;;;13.30;99.90;;;;;;5042750;28;20036;-91
2021/04/23 08:48:42;;;;;;;14.00;8.50;;;13.80;99.90;;;;;;5046517;28;20107;-91
2021/04/23 08:51:08;;;;;;;12.75;9.00;;;13.70;99.90;;;;;;5047604;28;20524;-92
2021/04/23 08:53:34;;;;;;;13.80;9.55;;;14.00;99.90;;;;;;5051969;28;20082;-90
2021/04/23 08:56:00;;;;;;;12.05;9.52;;;14.40;99.90;;;;;;5049125;28;20037;-91
2021/04/23 08:58:26;;;;;;;12.50;9.38;;;14.00;99.90;;;;;;5045159;28;20048;-91
2021/04/23 09:00:52;;;;;;;12.32;9.20;;;14.30;99.90;;;;;;5037633;28;20107;-91
2021/04/23 09:03:23;;;;;;;12.48;9.40;;;14.40;99.90;;;;;;5046182;28;20034;-91
2021/04/23 09:06:07;;;;;;;14.82;9.95;;;14.50;99.90;;;;;;5049566;28;20025;-91
2021/04/23 09:08:44;;;;;;;14.82;8.68;;;14.50;99.90;;;;;;5045708;28;20362;-91
2021/04/23 09:11:15;;;;;;;23.73;9.57;;;14.80;99.90;;;;;;5065911;28;20041;-91
2021/04/23 09:13:50;;;;;;;11.52;9.32;;;14.90;99.90;;;;;;5039737;28;20035;-91
2021/04/23 09:16:19;;;;;;;23.30;9.95;;;15.30;99.90;;;;;;5040185;28;20031;-91
2021/04/23 09:18:45;;;;;;;15.38;9.80;;;15.20;99.90;;;;;;5047047;28;20504;-91
2021/04/23 09:21:14;;;;;;;15.88;9.77;;;15.40;99.90;;;;;;5047141;28;20025;-91
2021/04/23 09:23:48;;;;;;;13.02;9.48;;;15.60;99.90;;;;;;5051344;28;20040;-91
2021/04/23 09:26:32;;;;;;;11.95;9.50;;;15.40;99.90;;;;;;5050059;28;20389;-91
2021/04/23 09:28:58;;;;;;;14.77;9.73;;;15.50;99.90;;;;;;5033285;28;20037;-91
2021/04/23 09:31:31;;;;;;;13.48;9.98;;;15.50;99.90;;;;;;5042023;28;20072;-91
2021/04/23 09:34:00;;;;;;;12.38;9.52;;;15.70;99.90;;;;;;5046969;28;20032;-91
2021/04/23 09:36:33;;;;;;;13.20;9.82;;;15.60;99.90;;;;;;5046455;28;20033;-91
2021/04/23 09:39:07;;;;;;;12.93;10.02;;;15.40;99.90;;;;;;5047910;28;20401;-91
2021/04/23 09:41:33;;;;;;;12.82;9.55;;;15.50;99.90;;;;;;5044675;28;20401;-91
2021/04/23 09:43:59;;;;;;;11.18;9.73;;;15.60;99.90;;;;;;5033182;28;20035;-91
2021/04/23 09:46:38;;;;;;;16.02;9.75;;;15.50;99.90;;;;;;5042454;28;20039;-91
2021/04/23 09:49:17;;;;;;;14.57;10.32;;;16.10;99.90;;;;;;5046494;28;20057;-91
2021/04/23 09:51:43;;;;;;;14.43;9.35;;;15.80;99.90;;;;;;5034173;28;20063;-95
2021/04/23 09:54:27;;;;;;;14.15;10.10;;;16.10;99.90;;;;;;5018349;28;20045;-93
2021/04/23 09:56:54;;;;;;;15.05;10.25;;;16.20;99.90;;;;;;5030457;28;20038;-92
2021/04/23 09:59:21;;;;;;;12.73;9.45;;;16.30;99.90;;;;;;5045398;28;20524;-90
2021/04/23 10:01:52;;;;;;;12.77;9.48;;;16.30;99.90;;;;;;5046692;28;20031;-93
2021/04/23 10:04:26;;;;;;;13.93;9.32;;;16.60;99.90;;;;;;5046963;28;20039;-89
2021/04/23 10:07:21;;;;;;;14.85;10.20;;;16.70;99.90;;;;;;5043119;28;20111;-91
2021/04/23 10:09:55;;;;;;;13.80;10.82;;;16.80;99.90;;;;;;5047181;28;20029;-91
2021/04/23 10:12:30;;;;;;;14.00;9.43;;;16.60;99.90;;;;;;5041564;28;20044;-91
2021/04/23 10:14:58;;;;;;;15.43;10.73;;;16.70;99.90;;;;;;5046655;28;20056;-91
2021/04/23 10:17:24;;;;;;;13.85;9.85;;;16.70;99.90;;;;;;5051130;28;20029;-91
2021/04/23 10:19:50;;;;;;;13.98;9.98;;;17.10;99.90;;;;;;5045999;28;20063;-91
2021/04/23 10:22:16;;;;;;;13.93;9.85;;;17.20;99.90;;;;;;5033692;28;20039;-91
2021/04/23 10:24:42;;;;;;;12.55;9.05;;;17.20;99.90;;;;;;5035562;28;20485;-91
2021/04/23 10:27:08;;;;;;;11.65;9.57;;;17.40;99.90;;;;;;5046695;28;22626;-91
2021/04/23 10:29:36;;;;;;;10.85;9.18;;;17.60;99.90;;;;;;5052602;28;20490;-89
2021/04/23 10:32:05;;;;;;;11.48;9.02;;;18.20;99.90;;;;;;5046799;28;20083;-91
2021/04/23 10:34:33;;;;;;;10.93;9.20;;;18.80;99.90;;;;;;5042749;28;20064;-91
2021/04/23 10:36:59;;;;;;;13.98;9.25;;;20.20;99.90;;;;;;5041338;28;20451;-90
2021/04/23 10:39:26;;;;;;;13.63;9.40;;;23.90;99.90;;;;;;5039144;28;20009;-91
2021/04/23 10:41:52;;;;;;;12.82;9.60;;;27.40;99.90;;;;;;5048329;28;20024;-91
2021/04/23 10:44:20;;;;;;;11.57;10.18;;;29.60;99.90;;;;;;5051096;28;20020;-90
2021/04/23 10:46:51;;;;;;;11.10;9.10;;;30.80;99.90;;;;;;5036250;28;20037;-90
2021/04/23 10:49:17;;;;;;;12.07;9.63;;;31.70;99.90;;;;;;5045889;28;20025;-91
2021/04/23 10:51:43;;;;;;;11.93;10.43;;;32.10;99.90;;;;;;5045867;28;20119;-90
2021/04/23 10:54:17;;;;;;;12.88;10.38;;;31.20;99.90;;;;;;5036379;28;20045;-91
2021/04/23 10:56:51;;;;;;;11.02;9.88;;;31.30;99.90;;;;;;5047369;28;20037;-91
2021/04/23 10:59:22;;;;;;;10.30;9.20;;;32.40;99.90;;;;;;5040302;28;20025;-91
2021/04/23 11:01:51;;;;;;;12.20;9.52;;;33.60;99.90;;;;;;5045707;28;20083;-91
2021/04/23 11:04:19;;;;;;;13.75;9.15;;;34.10;99.90;;;;;;5045939;28;20033;-91
2021/04/23 11:07:01;;;;;;;12.18;9.05;;;34.50;99.90;;;;;;5046090;28;20056;-91
2021/04/23 11:09:27;;;;;;;11.55;8.90;;;35.50;99.90;;;;;;5027641;28;20107;-90
2021/04/23 11:12:08;;;;;;;11.30;10.10;;;35.30;99.90;;;;;;5030545;28;20509;-91
2021/04/23 11:14:39;;;;;;;11.30;10.05;;;34.50;99.90;;;;;;5044499;28;20531;-90
2021/04/23 11:17:19;;;;;;;11.68;9.77;;;35.90;99.90;;;;;;5046458;28;20051;-91
2021/04/23 11:19:48;;;;;;;10.73;9.63;;;36.60;99.90;;;;;;5049297;28;20036;-91
2021/04/23 11:22:20;;;;;;;13.13;10.13;;;35.60;99.90;;;;;;5049268;28;20036;-90
2021/04/23 11:25:04;;;;;;;11.15;10.05;;;35.70;99.90;;;;;;5043083;28;20022;-90
2021/04/23 11:27:30;;;;;;;11.57;9.77;;;35.90;99.90;;;;;;5049716;28;20043;-91
2021/04/23 11:29:57;;;;;;;12.35;9.63;;;35.80;99.90;;;;;;5051049;28;20497;-90
2021/04/23 11:32:33;;;;;;;10.90;9.75;;;35.00;99.90;;;;;;5054066;28;20052;-91
2021/04/23 11:35:08;;;;;;;12.60;8.68;;;36.60;99.90;;;;;;5048048;28;20366;-90
2021/04/23 11:37:42;;;;;;;11.48;9.20;;;35.80;99.90;;;;;;5049029;28;20028;-90
2021/04/23 11:40:25;;;;;;;9.95;8.82;;;35.70;99.90;;;;;;5043951;28;20535;-90
2021/04/23 11:42:53;;;;;;;10.40;9.02;;;34.30;99.90;;;;;;5049561;28;20025;-90
2021/04/23 11:45:20;;;;;;;11.13;8.73;;;35.60;99.90;;;;;;5049754;28;20025;-90
2021/04/23 11:47:48;;;;;;;10.00;9.00;;;36.20;99.90;;;;;;5034211;28;20030;-90
2021/04/23 11:50:19;;;;;;;9.50;8.52;;;36.70;99.90;;;;;;5050650;28;20770;-90
2021/04/23 11:52:51;;;;;;;9.32;8.43;;;36.70;99.90;;;;;;5038605;28;20025;-91
2021/04/23 11:55:28;;;;;;;10.95;9.27;;;37.90;99.90;;;;;;5041709;28;20033;-90
2021/04/23 11:58:04;;;;;;;11.80;9.65;;;36.00;99.90;;;;;;5039419;28;20075;-90
2021/04/23 12:00:31;;;;;;;12.68;9.45;;;36.40;99.90;;;;;;5041770;28;20064;-90
2021/04/23 12:02:58;;;;;;;10.40;8.48;;;36.80;99.90;;;;;;5048618;28;20080;-90
2021/04/23 12:05:31;;;;;;;10.70;9.60;;;36.30;99.90;;;;;;5053719;28;20108;-90
2021/04/23 12:07:59;;;;;;;11.32;10.10;;;35.60;99.90;;;;;;5047142;28;20464;-90
2021/04/23 12:10:26;;;;;;;10.02;9.02;;;35.60;99.90;;;;;;5048079;28;20504;-90
2021/04/23 12:12:52;;;;;;;12.10;9.25;;;36.30;99.90;;;;;;5048403;28;20065;-90
2021/04/23 12:15:32;;;;;;;11.70;9.65;;;34.60;99.90;;;;;;5048120;28;20075;-90
2021/04/23 12:18:01;;;;;;;9.95;8.80;;;34.90;99.90;;;;;;5049443;28;20505;-90
2021/04/23 12:20:37;;;;;;;10.57;9.15;;;35.70;99.90;;;;;;5054879;28;20037;-90
2021/04/23 12:23:05;;;;;;;12.73;9.23;;;35.60;99.90;;;;;;5048168;28;20021;-90
2021/04/23 12:25:38;;;;;;;10.13;8.13;;;35.70;99.90;;;;;;5042991;28;20036;-89
2021/04/23 12:28:25;;;;;;;8.30;7.13;;;36.10;99.90;;;;;;5047948;28;20017;-90
2021/04/23 12:30:54;;;;;;;8.75;7.60;;;36.00;99.90;;;;;;5047450;28;20501;-90
2021/04/23 12:33:20;;;;;;;9.65;7.60;;;36.10;99.90;;;;;;5048033;28;20030;-89
2021/04/23 12:35:48;;;;;;;8.50;7.65;;;37.10;99.90;;;;;;5051654;28;20493;-90
2021/04/23 12:38:16;;;;;;;9.43;7.43;;;36.80;99.90;;;;;;5047994;28;20021;-90
2021/04/23 12:40:44;;;;;;;8.32;7.38;;;37.40;99.90;;;;;;5037700;28;20052;-88
2021/04/23 12:43:17;;;;;;;10.43;8.18;;;36.60;99.90;;;;;;5042466;28;20570;-89